sensor_id;sensor_type;location;lat;lon;timestamp;pressure;altitude;pressure_sealevel;temperature;humidity
9717;BME280;4897;43.570;27.832;2023-01-01T00:01:27;100493.75;;;3.82;100.00
9717;BME280;4897;43.570;27.832;2023-01-01T00:03:56;100472.81;;;3.76;100.00
9717;BME280;4897;43.570;27.832;2023-01-01T00:06:24;100479.50;;;3.86;100.00
9717;BME280;4897;43.570;27.832;2023-01-01T00:08:51;100441.47;;;3.65;100.00
9717;BME280;4897;43.570;27.832;2023-01-01T00:11:38;100465.06;;;3.71;100.00
9717;BME280;4897;43.570;27.832;2023-01-01T00:14:05;100472.94;;;3.73;100.00
9717;BME280;4897;43.570;27.832;2023-01-01T00:16:32;100437.97;;;3.40;100.00
9717;BME280;4897;43.570;27.832;2023-01-01T00:19:00;100472.66;;;3.80;100.00
9717;BME280;4897;43.570;27.832;2023-01-01T00:21:27;100481.31;;;4.09;100.00
9717;BME280;4897;43.570;27.832;2023-01-01T00:23:54;100460.56;;;3.98;100.00
9717;BME280;4897;43.570;27.832;2023-01-01T00:26:21;100462.19;;;4.00;100.00
9717;BME280;4897;43.570;27.832;2023-01-01T00:28:48;100481.19;;;4.12;100.00
9717;BME280;4897;43.570;27.832;2023-01-01T00:31:17;100484.00;;;4.07;100.00
9717;BME280;4897;43.570;27.832;2023-01-01T00:33:44;100391.31;;;3.39;100.00
9717;BME280;4897;43.570;27.832;2023-01-01T00:36:14;100477.16;;;4.01;100.00
9717;BME280;4897;43.570;27.832;2023-01-01T00:38:42;100426.66;;;3.84;100.00
9717;BME280;4897;43.570;27.832;2023-01-01T00:41:11;100472.44;;;4.33;100.00
9717;BME280;4897;43.570;27.832;2023-01-01T00:43:38;100472.38;;;4.34;100.00
9717;BME280;4897;43.570;27.832;2023-01-01T00:46:06;100477.50;;;4.16;100.00
9717;BME280;4897;43.570;27.832;2023-01-01T00:48:34;100415.97;;;3.64;100.00
9717;BME280;4897;43.570;27.832;2023-01-01T00:51:01;100461.81;;;3.88;100.00
9717;BME280;4897;43.570;27.832;2023-01-01T00:53:30;100469.34;;;3.98;100.00
9717;BME280;4897;43.570;27.832;2023-01-01T00:55:57;100457.03;;;3.97;100.00
9717;BME280;4897;43.570;27.832;2023-01-01T00:58:24;100454.22;;;4.02;100.00
9717;BME280;4897;43.570;27.832;2023-01-01T01:00:52;100460.97;;;4.11;100.00
9717;BME280;4897;43.570;27.832;2023-01-01T01:03:19;100467.56;;;4.22;100.00
9717;BME280;4897;43.570;27.832;2023-01-01T01:05:56;100461.81;;;4.56;100.00
9717;BME280;4897;43.570;27.832;2023-01-01T01:08:24;100456.41;;;4.59;100.00
9717;BME280;4897;43.570;27.832;2023-01-01T01:10:52;100457.75;;;4.69;100.00
9717;BME280;4897;43.570;27.832;2023-01-01T01:13:20;100426.69;;;4.51;100.00
9717;BME280;4897;43.570;27.832;2023-01-01T01:15:47;100433.78;;;4.50;100.00
9717;BME280;4897;43.570;27.832;2023-01-01T01:18:14;100447.28;;;4.66;100.00
9717;BME280;4897;43.570;27.832;2023-01-01T01:20:49;100462.38;;;4.64;100.00
9717;BME280;4897;43.570;27.832;2023-01-01T01:23:17;100417.94;;;4.49;100.00
9717;BME280;4897;43.570;27.832;2023-01-01T01:25:44;100350.84;;;4.07;100.00
9717;BME280;4897;43.570;27.832;2023-01-01T01:28:12;100459.78;;;4.62;100.00
9717;BME280;4897;43.570;27.832;2023-01-01T01:30:40;100460.59;;;4.64;100.00
9717;BME280;4897;43.570;27.832;2023-01-01T01:33:07;100468.38;;;4.67;100.00
9717;BME280;4897;43.570;27.832;2023-01-01T01:35:34;100403.84;;;4.27;100.00
9717;BME280;4897;43.570;27.832;2023-01-01T01:38:01;100451.16;;;4.57;100.00
9717;BME280;4897;43.570;27.832;2023-01-01T01:40:28;100436.22;;;4.55;100.00
9717;BME280;4897;43.570;27.832;2023-01-01T01:42:55;100449.63;;;4.73;100.00
9717;BME280;4897;43.570;27.832;2023-01-01T01:45:23;100440.72;;;4.96;100.00
9717;BME280;4897;43.570;27.832;2023-01-01T01:47:52;100394.78;;;5.16;100.00
9717;BME280;4897;43.570;27.832;2023-01-01T01:50:25;100416.59;;;5.62;100.00
9717;BME280;4897;43.570;27.832;2023-01-01T01:53:00;100444.53;;;6.10;100.00
9717;BME280;4897;43.570;27.832;2023-01-01T01:55:30;100402.81;;;6.30;100.00
9717;BME280;4897;43.570;27.832;2023-01-01T01:57:58;100402.78;;;6.49;100.00
9717;BME280;4897;43.570;27.832;2023-01-01T02:00:27;100390.63;;;6.62;100.00
9717;BME280;4897;43.570;27.832;2023-01-01T02:02:57;100417.25;;;6.79;100.00
9717;BME280;4897;43.570;27.832;2023-01-01T02:05:27;100411.72;;;6.84;100.00
9717;BME280;4897;43.570;27.832;2023-01-01T02:07:55;100420.09;;;7.10;100.00
9717;BME280;4897;43.570;27.832;2023-01-01T02:10:23;100355.22;;;6.62;100.00
9717;BME280;4897;43.570;27.832;2023-01-01T02:12:50;100398.66;;;6.96;100.00
9717;BME280;4897;43.570;27.832;2023-01-01T02:15:17;100427.59;;;7.02;100.00
9717;BME280;4897;43.570;27.832;2023-01-01T02:17:53;100426.28;;;7.11;100.00
9717;BME280;4897;43.570;27.832;2023-01-01T02:20:33;100404.59;;;7.01;100.00
9717;BME280;4897;43.570;27.832;2023-01-01T02:23:43;100424.16;;;7.00;100.00
9717;BME280;4897;43.570;27.832;2023-01-01T02:29:14;100397.00;;;6.94;100.00
9717;BME280;4897;43.570;27.832;2023-01-01T02:31:48;100418.34;;;7.09;100.00
9717;BME280;4897;43.570;27.832;2023-01-01T02:34:20;100413.75;;;6.96;100.00
9717;BME280;4897;43.570;27.832;2023-01-01T02:36:52;100403.66;;;6.85;100.00
9717;BME280;4897;43.570;27.832;2023-01-01T02:39:24;100418.22;;;7.12;100.00
9717;BME280;4897;43.570;27.832;2023-01-01T02:41:53;100419.00;;;7.14;100.00
9717;BME280;4897;43.570;27.832;2023-01-01T02:44:25;100417.34;;;7.12;100.00
9717;BME280;4897;43.570;27.832;2023-01-01T02:46:52;100404.44;;;7.04;100.00
9717;BME280;4897;43.570;27.832;2023-01-01T02:49:19;100343.41;;;6.84;100.00
9717;BME280;4897;43.570;27.832;2023-01-01T02:52:00;100401.81;;;7.21;100.00
9717;BME280;4897;43.570;27.832;2023-01-01T02:54:32;100393.31;;;7.13;100.00
9717;BME280;4897;43.570;27.832;2023-01-01T02:57:06;100411.72;;;7.18;100.00
9717;BME280;4897;43.570;27.832;2023-01-01T02:59:43;100347.97;;;6.82;100.00
9717;BME280;4897;43.570;27.832;2023-01-01T03:02:38;100398.81;;;7.10;100.00
9717;BME280;4897;43.570;27.832;2023-01-01T03:05:12;100411.03;;;7.14;100.00
9717;BME280;4897;43.570;27.832;2023-01-01T03:07:49;100372.06;;;6.79;100.00
9717;BME280;4897;43.570;27.832;2023-01-01T03:10:23;100402.56;;;7.06;100.00
9717;BME280;4897;43.570;27.832;2023-01-01T03:13:00;100397.06;;;7.09;100.00
9717;BME280;4897;43.570;27.832;2023-01-01T03:15:35;100384.00;;;6.71;100.00
9717;BME280;4897;43.570;27.832;2023-01-01T03:18:07;100387.53;;;6.71;100.00
9717;BME280;4897;43.570;27.832;2023-01-01T03:20:40;100409.31;;;6.61;100.00
9717;BME280;4897;43.570;27.832;2023-01-01T03:23:14;100412.19;;;6.56;100.00
9717;BME280;4897;43.570;27.832;2023-01-01T03:25:46;100416.22;;;6.46;100.00
9717;BME280;4897;43.570;27.832;2023-01-01T03:28:17;100394.00;;;6.30;100.00
9717;BME280;4897;43.570;27.832;2023-01-01T03:30:47;100428.72;;;6.44;100.00
9717;BME280;4897;43.570;27.832;2023-01-01T03:33:17;100419.19;;;6.21;100.00
9717;BME280;4897;43.570;27.832;2023-01-01T03:35:49;100423.34;;;6.08;100.00
9717;BME280;4897;43.570;27.832;2023-01-01T03:38:21;100453.97;;;5.97;100.00
9717;BME280;4897;43.570;27.832;2023-01-01T03:40:52;100351.91;;;5.46;100.00
9717;BME280;4897;43.570;27.832;2023-01-01T03:43:23;100433.28;;;5.85;100.00
9717;BME280;4897;43.570;27.832;2023-01-01T03:45:53;100446.97;;;5.76;100.00
9717;BME280;4897;43.570;27.832;2023-01-01T03:48:22;100438.13;;;5.75;100.00
9717;BME280;4897;43.570;27.832;2023-01-01T03:50:57;100446.84;;;5.58;100.00
9717;BME280;4897;43.570;27.832;2023-01-01T03:53:35;100453.50;;;5.48;100.00
9717;BME280;4897;43.570;27.832;2023-01-01T03:56:11;100451.41;;;5.35;100.00
9717;BME280;4897;43.570;27.832;2023-01-01T03:58:41;100439.41;;;5.26;100.00
9717;BME280;4897;43.570;27.832;2023-01-01T04:01:17;100425.50;;;5.21;100.00
9717;BME280;4897;43.570;27.832;2023-01-01T04:03:46;100447.63;;;5.40;100.00
9717;BME280;4897;43.570;27.832;2023-01-01T04:06:14;100437.28;;;5.34;100.00
9717;BME280;4897;43.570;27.832;2023-01-01T04:08:41;100421.00;;;5.23;100.00
9717;BME280;4897;43.570;27.832;2023-01-01T04:11:13;100449.38;;;5.41;100.00
9717;BME280;4897;43.570;27.832;2023-01-01T04:13:58;100441.53;;;5.18;100.00
9717;BME280;4897;43.570;27.832;2023-01-01T04:16:26;100430.91;;;4.98;100.00
9717;BME280;4897;43.570;27.832;2023-01-01T04:18:53;100459.19;;;5.19;100.00
9717;BME280;4897;43.570;27.832;2023-01-01T04:21:20;100456.66;;;5.16;100.00
9717;BME280;4897;43.570;27.832;2023-01-01T04:23:47;100432.78;;;4.96;100.00
9717;BME280;4897;43.570;27.832;2023-01-01T04:26:14;100454.88;;;4.95;100.00
9717;BME280;4897;43.570;27.832;2023-01-01T04:28:41;100455.56;;;5.00;100.00
9717;BME280;4897;43.570;27.832;2023-01-01T04:31:09;100457.44;;;4.98;100.00
9717;BME280;4897;43.570;27.832;2023-01-01T04:33:37;100381.66;;;4.51;100.00
9717;BME280;4897;43.570;27.832;2023-01-01T04:36:05;100467.28;;;4.95;100.00
9717;BME280;4897;43.570;27.832;2023-01-01T04:38:33;100444.81;;;4.83;100.00
9717;BME280;4897;43.570;27.832;2023-01-01T04:41:00;100430.03;;;4.56;100.00
9717;BME280;4897;43.570;27.832;2023-01-01T04:43:28;100456.19;;;4.63;100.00
9717;BME280;4897;43.570;27.832;2023-01-01T04:45:55;100468.47;;;4.66;100.00
9717;BME280;4897;43.570;27.832;2023-01-01T04:48:22;100466.78;;;4.63;100.00
9717;BME280;4897;43.570;27.832;2023-01-01T04:50:55;100458.59;;;4.48;100.00
9717;BME280;4897;43.570;27.832;2023-01-01T04:53:23;100443.94;;;4.39;100.00
9717;BME280;4897;43.570;27.832;2023-01-01T04:55:50;100463.75;;;4.51;100.00
9717;BME280;4897;43.570;27.832;2023-01-01T04:58:17;100458.69;;;4.46;100.00
9717;BME280;4897;43.570;27.832;2023-01-01T05:00:47;100465.63;;;4.49;100.00
9717;BME280;4897;43.570;27.832;2023-01-01T05:03:14;100472.03;;;4.43;100.00
9717;BME280;4897;43.570;27.832;2023-01-01T05:05:41;100465.84;;;4.43;100.00
9717;BME280;4897;43.570;27.832;2023-01-01T05:08:09;100454.16;;;4.27;100.00
9717;BME280;4897;43.570;27.832;2023-01-01T05:10:36;100465.19;;;4.38;100.00
9717;BME280;4897;43.570;27.832;2023-01-01T05:13:06;100469.44;;;4.42;100.00
9717;BME280;4897;43.570;27.832;2023-01-01T05:15:35;100460.00;;;4.35;100.00
9717;BME280;4897;43.570;27.832;2023-01-01T05:18:02;100486.13;;;4.44;100.00
9717;BME280;4897;43.570;27.832;2023-01-01T05:20:29;100464.88;;;4.45;100.00
9717;BME280;4897;43.570;27.832;2023-01-01T05:22:56;100472.50;;;4.53;100.00
9717;BME280;4897;43.570;27.832;2023-01-01T05:25:24;100427.66;;;4.27;100.00
9717;BME280;4897;43.570;27.832;2023-01-01T05:27:51;100468.97;;;4.54;100.00
9717;BME280;4897;43.570;27.832;2023-01-01T05:30:18;100452.06;;;4.35;100.00
9717;BME280;4897;43.570;27.832;2023-01-01T05:32:45;100467.59;;;4.44;100.00
9717;BME280;4897;43.570;27.832;2023-01-01T05:35:12;100467.59;;;4.44;100.00
9717;BME280;4897;43.570;27.832;2023-01-01T05:37:39;100471.59;;;4.54;100.00
9717;BME280;4897;43.570;27.832;2023-01-01T05:40:07;100461.81;;;4.56;100.00
9717;BME280;4897;43.570;27.832;2023-01-01T05:42:35;100463.91;;;4.91;100.00
9717;BME280;4897;43.570;27.832;2023-01-01T05:45:02;100443.13;;;5.02;100.00
9717;BME280;4897;43.570;27.832;2023-01-01T05:47:29;100473.97;;;5.25;100.00
9717;BME280;4897;43.570;27.832;2023-01-01T05:49:56;100457.19;;;5.24;100.00
9717;BME280;4897;43.570;27.832;2023-01-01T05:52:23;100442.72;;;5.11;100.00
9717;BME280;4897;43.570;27.832;2023-01-01T05:54:50;100445.84;;;5.21;100.00
9717;BME280;4897;43.570;27.832;2023-01-01T05:57:17;100475.22;;;5.36;100.00
9717;BME280;4897;43.570;27.832;2023-01-01T05:59:45;100472.19;;;5.45;100.00
9717;BME280;4897;43.570;27.832;2023-01-01T06:02:12;100467.81;;;5.44;100.00
9717;BME280;4897;43.570;27.832;2023-01-01T06:04:39;100462.22;;;5.30;100.00
9717;BME280;4897;43.570;27.832;2023-01-01T06:07:06;100469.91;;;5.36;100.00
9717;BME280;4897;43.570;27.832;2023-01-01T06:09:33;100479.47;;;5.40;100.00
9717;BME280;4897;43.570;27.832;2023-01-01T06:11:59;100405.59;;;5.11;100.00
9717;BME280;4897;43.570;27.832;2023-01-01T06:14:26;100491.63;;;5.66;100.00
9717;BME280;4897;43.570;27.832;2023-01-01T06:16:55;100486.19;;;5.69;100.00
9717;BME280;4897;43.570;27.832;2023-01-01T06:19:21;100476.44;;;5.49;100.00
9717;BME280;4897;43.570;27.832;2023-01-01T06:21:48;100473.22;;;5.61;100.00
9717;BME280;4897;43.570;27.832;2023-01-01T06:24:15;100446.56;;;5.64;100.00
9717;BME280;4897;43.570;27.832;2023-01-01T06:26:42;100476.50;;;5.88;100.00
9717;BME280;4897;43.570;27.832;2023-01-01T06:29:09;100307.41;;;4.94;100.00
9717;BME280;4897;43.570;27.832;2023-01-01T06:31:36;100527.91;;;6.06;100.00
9717;BME280;4897;43.570;27.832;2023-01-01T06:34:04;100487.00;;;6.10;100.00
9717;BME280;4897;43.570;27.832;2023-01-01T06:36:31;100483.88;;;6.20;100.00
9717;BME280;4897;43.570;27.832;2023-01-01T06:38:58;100494.94;;;6.30;100.00
9717;BME280;4897;43.570;27.832;2023-01-01T06:41:28;100488.09;;;6.43;100.00
9717;BME280;4897;43.570;27.832;2023-01-01T06:43:55;100488.19;;;6.60;100.00
9717;BME280;4897;43.570;27.832;2023-01-01T06:46:24;100435.97;;;6.40;100.00
9717;BME280;4897;43.570;27.832;2023-01-01T06:48:53;100494.06;;;6.67;100.00
9717;BME280;4897;43.570;27.832;2023-01-01T06:51:23;100490.63;;;6.65;100.00
9717;BME280;4897;43.570;27.832;2023-01-01T06:53:50;100489.31;;;6.73;100.00
9717;BME280;4897;43.570;27.832;2023-01-01T06:56:18;100503.59;;;6.89;100.00
9717;BME280;4897;43.570;27.832;2023-01-01T06:58:45;100322.50;;;5.69;100.00
9717;BME280;4897;43.570;27.832;2023-01-01T07:01:13;100505.03;;;7.13;100.00
9717;BME280;4897;43.570;27.832;2023-01-01T07:03:41;100496.38;;;7.27;100.00
9717;BME280;4897;43.570;27.832;2023-01-01T07:06:09;100506.59;;;7.36;100.00
9717;BME280;4897;43.570;27.832;2023-01-01T07:08:37;100474.25;;;7.26;100.00
9717;BME280;4897;43.570;27.832;2023-01-01T07:11:04;100501.19;;;7.55;100.00
9717;BME280;4897;43.570;27.832;2023-01-01T07:13:31;100506.66;;;7.69;100.00
9717;BME280;4897;43.570;27.832;2023-01-01T07:15:58;100483.16;;;7.77;100.00
9717;BME280;4897;43.570;27.832;2023-01-01T07:18:26;100502.69;;;7.93;100.00
9717;BME280;4897;43.570;27.832;2023-01-01T07:20:54;100505.19;;;8.13;100.00
9717;BME280;4897;43.570;27.832;2023-01-01T07:23:22;100510.44;;;8.47;100.00
9717;BME280;4897;43.570;27.832;2023-01-01T07:25:51;100492.66;;;8.63;100.00
9717;BME280;4897;43.570;27.832;2023-01-01T07:28:19;100478.59;;;8.91;100.00
9717;BME280;4897;43.570;27.832;2023-01-01T07:30:46;100486.31;;;9.27;100.00
9717;BME280;4897;43.570;27.832;2023-01-01T07:33:15;100497.25;;;9.52;100.00
9717;BME280;4897;43.570;27.832;2023-01-01T07:35:43;100472.13;;;9.70;100.00
9717;BME280;4897;43.570;27.832;2023-01-01T07:38:10;100494.91;;;10.05;100.00
9717;BME280;4897;43.570;27.832;2023-01-01T07:40:42;100489.19;;;10.25;100.00
9717;BME280;4897;43.570;27.832;2023-01-01T07:43:11;100480.63;;;10.34;100.00
9717;BME280;4897;43.570;27.832;2023-01-01T07:45:38;100477.81;;;10.50;100.00
9717;BME280;4897;43.570;27.832;2023-01-01T07:48:08;100485.13;;;10.75;100.00
9717;BME280;4897;43.570;27.832;2023-01-01T07:50:37;100473.25;;;10.79;100.00
9717;BME280;4897;43.570;27.832;2023-01-01T07:53:04;100502.38;;;11.24;100.00
9717;BME280;4897;43.570;27.832;2023-01-01T07:55:31;100473.25;;;11.19;100.00
9717;BME280;4897;43.570;27.832;2023-01-01T07:57:59;100434.53;;;11.11;100.00
9717;BME280;4897;43.570;27.832;2023-01-01T08:00:28;100500.81;;;11.73;100.00
9717;BME280;4897;43.570;27.832;2023-01-01T08:02:55;100497.19;;;11.87;100.00
9717;BME280;4897;43.570;27.832;2023-01-01T08:05:23;100487.03;;;11.92;100.00
9717;BME280;4897;43.570;27.832;2023-01-01T08:07:50;100490.78;;;12.15;100.00
9717;BME280;4897;43.570;27.832;2023-01-01T08:10:18;100492.28;;;12.19;100.00
9717;BME280;4897;43.570;27.832;2023-01-01T08:12:45;100495.06;;;12.30;100.00
9717;BME280;4897;43.570;27.832;2023-01-01T08:15:13;100489.81;;;12.41;100.00
9717;BME280;4897;43.570;27.832;2023-01-01T08:17:44;100496.22;;;12.51;100.00
9717;BME280;4897;43.570;27.832;2023-01-01T08:20:11;100492.91;;;12.47;100.00
9717;BME280;4897;43.570;27.832;2023-01-01T08:22:37;100496.38;;;12.73;100.00
9717;BME280;4897;43.570;27.832;2023-01-01T08:25:05;100495.81;;;12.93;100.00
9717;BME280;4897;43.570;27.832;2023-01-01T08:27:34;100483.66;;;12.88;100.00
9717;BME280;4897;43.570;27.832;2023-01-01T08:30:03;100490.59;;;13.03;100.00
9717;BME280;4897;43.570;27.832;2023-01-01T08:32:30;100494.88;;;13.18;100.00
9717;BME280;4897;43.570;27.832;2023-01-01T08:34:59;100494.56;;;13.33;100.00
9717;BME280;4897;43.570;27.832;2023-01-01T08:37:26;100464.53;;;13.28;100.00
9717;BME280;4897;43.570;27.832;2023-01-01T08:39:53;100488.78;;;13.50;100.00
9717;BME280;4897;43.570;27.832;2023-01-01T08:42:20;100500.25;;;13.76;100.00
9717;BME280;4897;43.570;27.832;2023-01-01T08:44:49;100494.38;;;13.71;100.00
9717;BME280;4897;43.570;27.832;2023-01-01T08:47:17;100503.94;;;13.86;100.00
9717;BME280;4897;43.570;27.832;2023-01-01T08:49:44;100494.28;;;13.84;100.00
9717;BME280;4897;43.570;27.832;2023-01-01T08:52:13;100501.03;;;14.00;100.00
9717;BME280;4897;43.570;27.832;2023-01-01T08:54:40;100502.56;;;14.15;100.00
9717;BME280;4897;43.570;27.832;2023-01-01T08:57:07;100494.91;;;14.33;100.00
9717;BME280;4897;43.570;27.832;2023-01-01T08:59:34;100489.75;;;15.28;100.00
9717;BME280;4897;43.570;27.832;2023-01-01T09:02:01;100472.84;;;17.39;100.00
9717;BME280;4897;43.570;27.832;2023-01-01T09:04:31;100481.94;;;18.88;82.86
9717;BME280;4897;43.570;27.832;2023-01-01T09:06:57;100461.59;;;19.46;72.06
9717;BME280;4897;43.570;27.832;2023-01-01T09:09:26;100467.19;;;19.45;71.98
9717;BME280;4897;43.570;27.832;2023-01-01T09:11:54;100471.44;;;20.00;65.84
9717;BME280;4897;43.570;27.832;2023-01-01T09:14:23;100475.06;;;20.09;65.08
9717;BME280;4897;43.570;27.832;2023-01-01T09:16:50;100459.44;;;20.11;64.70
9717;BME280;4897;43.570;27.832;2023-01-01T09:19:18;100450.72;;;20.50;60.38
9717;BME280;4897;43.570;27.832;2023-01-01T09:21:45;100461.22;;;20.45;60.91
9717;BME280;4897;43.570;27.832;2023-01-01T09:24:12;100467.72;;;20.27;63.60
9717;BME280;4897;43.570;27.832;2023-01-01T09:26:40;100445.63;;;19.78;63.29
9717;BME280;4897;43.570;27.832;2023-01-01T09:29:07;100451.44;;;20.27;62.21
9717;BME280;4897;43.570;27.832;2023-01-01T09:31:33;100450.13;;;20.64;60.45
9717;BME280;4897;43.570;27.832;2023-01-01T09:34:00;100457.63;;;20.79;59.14
9717;BME280;4897;43.570;27.832;2023-01-01T09:36:29;100458.75;;;22.08;54.56
9717;BME280;4897;43.570;27.832;2023-01-01T09:38:57;100448.88;;;20.59;57.83
9717;BME280;4897;43.570;27.832;2023-01-01T09:41:35;100449.19;;;20.48;57.34
9717;BME280;4897;43.570;27.832;2023-01-01T09:44:19;100433.91;;;19.78;62.14
9717;BME280;4897;43.570;27.832;2023-01-01T09:46:50;100422.13;;;20.13;61.60
9717;BME280;4897;43.570;27.832;2023-01-01T09:49:22;100449.47;;;19.93;61.70
9717;BME280;4897;43.570;27.832;2023-01-01T09:51:53;100445.63;;;20.55;60.31
9717;BME280;4897;43.570;27.832;2023-01-01T09:54:27;100423.22;;;20.53;58.01
9717;BME280;4897;43.570;27.832;2023-01-01T09:56:56;100443.75;;;20.48;60.74
9717;BME280;4897;43.570;27.832;2023-01-01T09:59:26;100386.22;;;21.26;55.49
9717;BME280;4897;43.570;27.832;2023-01-01T10:01:56;100434.91;;;21.70;53.30
9717;BME280;4897;43.570;27.832;2023-01-01T10:04:37;100431.84;;;21.57;53.68
9717;BME280;4897;43.570;27.832;2023-01-01T10:07:13;100432.53;;;21.51;52.37
9717;BME280;4897;43.570;27.832;2023-01-01T10:09:48;100421.31;;;21.86;51.33
9717;BME280;4897;43.570;27.832;2023-01-01T10:12:21;100432.84;;;21.72;51.53
9717;BME280;4897;43.570;27.832;2023-01-01T10:14:53;100428.63;;;20.95;54.53
9717;BME280;4897;43.570;27.832;2023-01-01T10:17:31;100430.25;;;21.14;54.06
9717;BME280;4897;43.570;27.832;2023-01-01T10:20:03;100413.25;;;20.70;54.29
9717;BME280;4897;43.570;27.832;2023-01-01T10:22:34;100417.72;;;21.77;52.26
9717;BME280;4897;43.570;27.832;2023-01-01T10:25:05;100362.41;;;21.20;52.59
9717;BME280;4897;43.570;27.832;2023-01-01T10:27:37;100398.81;;;21.19;53.02
9717;BME280;4897;43.570;27.832;2023-01-01T10:30:14;100401.00;;;21.24;53.11
9717;BME280;4897;43.570;27.832;2023-01-01T10:32:41;100406.66;;;20.39;56.09
9717;BME280;4897;43.570;27.832;2023-01-01T10:35:12;100399.88;;;20.85;55.22
9717;BME280;4897;43.570;27.832;2023-01-01T10:37:39;100381.47;;;21.36;52.99
9717;BME280;4897;43.570;27.832;2023-01-01T10:40:14;100395.41;;;21.74;51.89
9717;BME280;4897;43.570;27.832;2023-01-01T10:42:44;100357.53;;;20.74;54.03
9717;BME280;4897;43.570;27.832;2023-01-01T10:45:17;100396.97;;;20.78;54.10
9717;BME280;4897;43.570;27.832;2023-01-01T10:48:09;100408.00;;;20.68;56.17
9717;BME280;4897;43.570;27.832;2023-01-01T10:50:42;100389.66;;;21.85;51.09
9717;BME280;4897;43.570;27.832;2023-01-01T10:53:20;100386.75;;;22.49;49.46
9717;BME280;4897;43.570;27.832;2023-01-01T10:55:49;100249.44;;;21.65;48.40
9717;BME280;4897;43.570;27.832;2023-01-01T10:58:28;100363.47;;;22.31;48.72
9717;BME280;4897;43.570;27.832;2023-01-01T11:01:03;100388.06;;;23.00;46.97
9717;BME280;4897;43.570;27.832;2023-01-01T11:03:31;100379.56;;;22.56;48.18
9717;BME280;4897;43.570;27.832;2023-01-01T11:06:03;100414.47;;;21.66;48.71
9717;BME280;4897;43.570;27.832;2023-01-01T11:08:34;100383.56;;;20.85;52.31
9717;BME280;4897;43.570;27.832;2023-01-01T11:11:03;100387.16;;;20.93;52.22
9717;BME280;4897;43.570;27.832;2023-01-01T11:13:30;100393.63;;;20.92;52.36
9717;BME280;4897;43.570;27.832;2023-01-01T11:16:09;100369.84;;;20.94;52.43
9717;BME280;4897;43.570;27.832;2023-01-01T11:18:37;100381.03;;;20.83;52.88
9717;BME280;4897;43.570;27.832;2023-01-01T11:21:05;100383.50;;;21.99;49.72
9717;BME280;4897;43.570;27.832;2023-01-01T11:23:34;100371.91;;;22.60;47.88
9717;BME280;4897;43.570;27.832;2023-01-01T11:26:04;100372.81;;;23.59;45.39
9717;BME280;4897;43.570;27.832;2023-01-01T11:28:32;100361.72;;;24.12;43.45
9717;BME280;4897;43.570;27.832;2023-01-01T11:31:11;100377.38;;;22.52;46.38
9717;BME280;4897;43.570;27.832;2023-01-01T11:33:43;100374.44;;;22.69;46.19
9717;BME280;4897;43.570;27.832;2023-01-01T11:36:17;100383.69;;;21.73;48.22
9717;BME280;4897;43.570;27.832;2023-01-01T11:38:47;100374.66;;;21.89;47.91
9717;BME280;4897;43.570;27.832;2023-01-01T11:41:14;100375.69;;;21.88;48.00
9717;BME280;4897;43.570;27.832;2023-01-01T11:43:43;100360.03;;;21.98;48.29
9717;BME280;4897;43.570;27.832;2023-01-01T11:46:21;100327.50;;;21.72;47.92
9717;BME280;4897;43.570;27.832;2023-01-01T11:48:49;100368.03;;;22.46;46.51
9717;BME280;4897;43.570;27.832;2023-01-01T11:51:28;100372.72;;;22.99;45.43
9717;BME280;4897;43.570;27.832;2023-01-01T11:54:18;100369.28;;;22.36;46.74
9717;BME280;4897;43.570;27.832;2023-01-01T11:56:49;100300.72;;;22.08;46.07
9717;BME280;4897;43.570;27.832;2023-01-01T11:59:22;100335.19;;;21.85;46.84
9717;BME280;4897;43.570;27.832;2023-01-01T12:01:54;100324.47;;;21.51;47.38
9717;BME280;4897;43.570;27.832;2023-01-01T12:04:27;100369.56;;;21.45;48.45
9717;BME280;4897;43.570;27.832;2023-01-01T12:06:58;100342.19;;;21.47;48.62
9717;BME280;4897;43.570;27.832;2023-01-01T12:09:32;100365.34;;;22.38;46.78
9717;BME280;4897;43.570;27.832;2023-01-01T12:12:06;100359.28;;;22.12;46.72
9717;BME280;4897;43.570;27.832;2023-01-01T12:14:40;100369.56;;;21.78;47.05
9717;BME280;4897;43.570;27.832;2023-01-01T12:17:16;100379.81;;;21.84;47.93
9717;BME280;4897;43.570;27.832;2023-01-01T12:19:52;100378.75;;;21.93;47.43
9717;BME280;4897;43.570;27.832;2023-01-01T12:22:22;100371.50;;;20.87;49.83
9717;BME280;4897;43.570;27.832;2023-01-01T12:24:50;100356.19;;;20.78;50.97
9717;BME280;4897;43.570;27.832;2023-01-01T12:27:27;100349.81;;;21.11;50.17
9717;BME280;4897;43.570;27.832;2023-01-01T12:30:05;100346.78;;;21.38;49.30
9717;BME280;4897;43.570;27.832;2023-01-01T12:32:52;100362.56;;;21.03;50.13
9717;BME280;4897;43.570;27.832;2023-01-01T12:35:35;100362.25;;;21.30;50.22
9717;BME280;4897;43.570;27.832;2023-01-01T12:38:11;100371.78;;;21.58;49.22
9717;BME280;4897;43.570;27.832;2023-01-01T12:40:49;100238.28;;;20.87;49.16
9717;BME280;4897;43.570;27.832;2023-01-01T12:43:26;100368.19;;;21.74;48.38
9717;BME280;4897;43.570;27.832;2023-01-01T12:49:25;100363.44;;;21.60;48.75
9717;BME280;4897;43.570;27.832;2023-01-01T12:52:03;100371.44;;;21.05;50.36
9717;BME280;4897;43.570;27.832;2023-01-01T12:57:31;100355.88;;;20.89;51.64
9717;BME280;4897;43.570;27.832;2023-01-01T13:00:03;100307.97;;;21.61;48.49
9717;BME280;4897;43.570;27.832;2023-01-01T13:02:49;100352.19;;;21.79;47.79
9717;BME280;4897;43.570;27.832;2023-01-01T13:05:21;100353.94;;;21.39;49.07
9717;BME280;4897;43.570;27.832;2023-01-01T13:07:52;100355.78;;;21.15;50.18
9717;BME280;4897;43.570;27.832;2023-01-01T13:10:24;100362.09;;;21.31;49.70
9717;BME280;4897;43.570;27.832;2023-01-01T13:12:52;100372.88;;;20.99;51.13
9717;BME280;4897;43.570;27.832;2023-01-01T13:15:45;100376.06;;;20.79;51.82
9717;BME280;4897;43.570;27.832;2023-01-01T13:18:24;100366.81;;;20.55;52.58
9717;BME280;4897;43.570;27.832;2023-01-01T13:21:05;100364.84;;;20.32;54.52
9717;BME280;4897;43.570;27.832;2023-01-01T13:23:46;100371.09;;;20.24;55.68
9717;BME280;4897;43.570;27.832;2023-01-01T13:26:33;100371.81;;;20.76;53.04